METAR AND TAF INFORMATION
METAR FOR LCEN
ADDS - METARS form results

(1649 UTC 23 February 2019)
Data provider http://aviationweather.gov/metar/data/
 
METAR text: LCEN 231620Z 36004KT 9999 FEW025CB SCT030 BKN080 11/08 Q1019 NOSIG RMK RWY11 02006KT
Conditions at: LCEN (ERCAN , CY) observed 1620 UTC 23 February 2019
Temperature: 11.0°C (52°F)
Dewpoint: 8.0°C (46°F) [RH = 82%]
Pressure (altimeter): 30.09 inches Hg (1019.0 mb)
Winds: from the N (360 degrees) at 5 MPH (4 knots; 2.1 m/s)
Visibility: 6 or more miles (10+ km)
Ceiling: 8000 feet AGL
Clouds: few clouds at 2500 feet AGL
scattered clouds at 3000 feet AGL
broken clouds at 8000 feet AGL
Weather: no significant weather observed at this time

METAR text: LCEN 231550Z 33003KT 9999 FEW020CB SCT025 BKN080 11/09 Q1019 NOSIG RMK RWY11 33004KT
Conditions at: LCEN (ERCAN , CY) observed 1550 UTC 23 February 2019
Temperature: 11.0°C (52°F)
Dewpoint: 9.0°C (48°F) [RH = 87%]
Pressure (altimeter): 30.09 inches Hg (1019.0 mb)
Winds: from the NNW (330 degrees) at 3 MPH (3 knots; 1.5 m/s)
Visibility: 6 or more miles (10+ km)
Ceiling: 8000 feet AGL
Clouds: few clouds at 2000 feet AGL
scattered clouds at 2500 feet AGL
broken clouds at 8000 feet AGL
Weather: no significant weather observed at this time

Forecast for: LCEN (ERCAN , CY)
Text: TAF LCEN 231040Z 2312/2412 16015KT 9999 FEW025
Forecast period: 1200 UTC 23 February 2019 to 1200 UTC 24 February 2019
Forecast type: FROM: standard forecast or significant change
Winds: from the SSE (160 degrees) at 17 MPH (15 knots; 7.7 m/s)
Visibility: 6 or more miles 10+ km)
Ceiling: at least 12,000 feet AGL
Clouds: few clouds at 2500 feet AGL
Weather: no significant weather forecast for this period
Text: TEMPO 2312/2315 5000 TSRA FEW020CB BKN025 BKN080
Forecast period: 1200 to 1500 UTC 23 February 2019
Forecast type: TEMPORARY: The following changes expected for less than half the time period
Visibility: 3 miles (5 km)
Ceiling: 2500 feet AGL
Clouds: few clouds at 2000 feet AGL
broken clouds at 2500 feet AGL
broken clouds at 8000 feet AGL
Weather: TSRA  (rain associated with thunderstorm(s))

 AIRPORT MAP

 RUNWAY INFORMATION
Runway 11 Runway length 9039 ft Runway width 148 ft
Runway elevation 402 ft Runway displaced threshold 0 ft Runway heading 107
Runway 29 Runway length 9039 ft Runway width 148 ft
Runway elevation 402 ft Runway displaced threshold 0 ft Runway heading 287

 AIRPORT FREQUENCIES
Type Enroute Name Ercan Rada Frequency 126.7 MHZ
Type Ercan Appr Name Frequency 126.9 MHZ
Type Ercan Atis Name Frequency 118.35 MHZ
Type Ercan Towe Name Frequency 120.2 MHZ

 AIRPORT NEAR NAVIGATION AIDS



Copyright © 2011 - 2018 BirgenAir Virtual Airlines. All rights reserved. Developed by Goktug Unver